Terminal Aerodrome Forecast
Issued by NWS

Home | Current Version | Previous Version | Text Only | Print | Product List | Glossary Off
Versions: 1 2 3 4 5 6 7 8 9 10 11 12 13 14 15 16

000
FTUS43 KDDC 290910 AAA
TAFGCK
TAF AMD
KGCK 290910Z 2909/3006 05018G27KT P6SM -RA OVC006
     FM291300 05016G23KT 5SM SHRA OVC003
     FM292200 03016G22KT 3SM SHRA OVC003=

USA.gov is the U.S. government's official web portal to all federal, state and local government web resources and services.